^^
Meteo Knjazevac Station Historical Data
Daily Summary for August 15, 2021 Units:  Both    English   Metric
Daily Weekly Monthly Yearly Custom
  High: Low: Average:
Temperature: 74.5 °F /  23.6 °C 46.6 °F /  8.1 °C 59 °F /  15 °C
Dew Point: 58.4 °F /  14.7 °C 44.6 °F /  7 °C 51.4 °F /  10.8 °C
Humidity: 95% 49% 78%
Wind Speed: 12mph /  19.3km/h - 1.8mph /  2.9km/h
Wind Gust: 24mph /  38.6km/h - -
Wind- - South
Pressure: 29.93 in /  1013.4 hPa 29.84 in /  1010.4 hPa -
Precipitation: 0.02 in /  0.51 mm    
Historical Graphs
 
 
Tabular Data for August 15, 2021
Time Temperature Dew Point Pressure Wind Wind Speed Wind Gust Humidity Rainfall Rate (Hourly) solar Conditions
00:00 54.7 °F /  12.6 °C 48.6 °F /  9.2 °C 29.93in /  1013.4hPa Calm   3mph /  4.8km/h 80% 0.00in /  0mm 0 W/m2
00:10 54.5 °F /  12.5 °C 48.5 °F /  9.2 °C 29.93in /  1013.4hPa West 1mph /  1.6km/h 3mph /  4.8km/h 80% 0.00in /  0mm 0 W/m2
00:20 54.1 °F /  12.3 °C 48.1 °F /  8.9 °C 29.93in /  1013.4hPa WNW 1mph /  1.6km/h 3mph /  4.8km/h 80% 0.00in /  0mm 0 W/m2
00:30 53.6 °F /  12 °C 48.6 °F /  9.2 °C 29.92in /  1013.1hPa West 2mph /  3.2km/h 3mph /  4.8km/h 83% 0.00in /  0mm 0 W/m2
00:40 53.2 °F /  11.8 °C 48.2 °F /  9 °C 29.92in /  1013.1hPa NNW 1mph /  1.6km/h 3mph /  4.8km/h 83% 0.00in /  0mm 0 W/m2
00:50 52.9 °F /  11.6 °C 47.9 °F /  8.8 °C 29.93in /  1013.4hPa Calm   2mph /  3.2km/h 83% 0.00in /  0mm 0 W/m2
01:00 52.3 °F /  11.3 °C 47.7 °F /  8.7 °C 29.93in /  1013.4hPa Calm   2mph /  3.2km/h 84% 0.00in /  0mm 0 W/m2
01:10 52 °F /  11.1 °C 47.3 °F /  8.5 °C 29.93in /  1013.4hPa Calm   2mph /  3.2km/h 84% 0.00in /  0mm 0 W/m2
01:20 51.6 °F /  10.9 °C 47.3 °F /  8.5 °C 29.93in /  1013.4hPa Calm   3mph /  4.8km/h 85% 0.00in /  0mm 0 W/m2
01:30 51.4 °F /  10.8 °C 47.1 °F /  8.4 °C 29.93in /  1013.4hPa WNW 1mph /  1.6km/h 2mph /  3.2km/h 85% 0.00in /  0mm 0 W/m2
01:40 51.1 °F /  10.6 °C 46.7 °F /  8.2 °C 29.92in /  1013.1hPa Calm   3mph /  4.8km/h 85% 0.00in /  0mm 0 W/m2
01:50 50.7 °F /  10.4 °C 46.7 °F /  8.2 °C 29.92in /  1013.1hPa North 1mph /  1.6km/h 3mph /  4.8km/h 86% 0.00in /  0mm 0 W/m2
02:00 50.5 °F /  10.3 °C 46.5 °F /  8.1 °C 29.92in /  1013.1hPa Calm   3mph /  4.8km/h 86% 0.00in /  0mm 0 W/m2
02:10 50.4 °F /  10.2 °C 46.9 °F /  8.3 °C 29.92in /  1013.1hPa Calm   3mph /  4.8km/h 88% 0.00in /  0mm 0 W/m2
02:20 50.2 °F /  10.1 °C 46.8 °F /  8.2 °C 29.92in /  1013.1hPa NE 2mph /  3.2km/h 4mph /  6.4km/h 88% 0.00in /  0mm 0 W/m2
02:30 50.2 °F /  10.1 °C 46.8 °F /  8.2 °C 29.92in /  1013.1hPa Calm   4mph /  6.4km/h 88% 0.00in /  0mm 0 W/m2
02:40 50 °F /  10 °C 46.6 °F /  8.1 °C 29.92in /  1013.1hPa NNE 1mph /  1.6km/h 2mph /  3.2km/h 88% 0.00in /  0mm 0 W/m2
02:50 49.3 °F /  9.6 °C 45.9 °F /  7.7 °C 29.92in /  1013.1hPa North 2mph /  3.2km/h 2mph /  3.2km/h 88% 0.00in /  0mm 0 W/m2
03:00 49.3 °F /  9.6 °C 46.2 °F /  7.9 °C 29.92in /  1013.1hPa NNE 2mph /  3.2km/h 3mph /  4.8km/h 89% 0.00in /  0mm 0 W/m2
03:10 49.3 °F /  9.6 °C 46.2 °F /  7.9 °C 29.93in /  1013.4hPa NNE 1mph /  1.6km/h 3mph /  4.8km/h 89% 0.00in /  0mm 0 W/m2
03:20 48.9 °F /  9.4 °C 46.1 °F /  7.8 °C 29.93in /  1013.4hPa NNE 1mph /  1.6km/h 3mph /  4.8km/h 90% 0.00in /  0mm 0 W/m2
03:30 48.9 °F /  9.4 °C 46.1 °F /  7.8 °C 29.93in /  1013.4hPa NE 2mph /  3.2km/h 4mph /  6.4km/h 90% 0.00in /  0mm 0 W/m2
03:40 48.7 °F /  9.3 °C 45.6 °F /  7.6 °C 29.92in /  1013.1hPa Calm   3mph /  4.8km/h 89% 0.00in /  0mm 0 W/m2
03:50 48.4 °F /  9.1 °C 45.3 °F /  7.4 °C 29.92in /  1013.1hPa Calm   2mph /  3.2km/h 89% 0.00in /  0mm 0 W/m2
04:00 47.8 °F /  8.8 °C 45 °F /  7.2 °C 29.92in /  1013.1hPa Calm   3mph /  4.8km/h 90% 0.00in /  0mm 0 W/m2
04:10 47.8 °F /  8.8 °C 45.3 °F /  7.4 °C 29.92in /  1013.1hPa NW 1mph /  1.6km/h 3mph /  4.8km/h 91% 0.00in /  0mm 0 W/m2
04:20 47.3 °F /  8.5 °C 44.8 °F /  7.1 °C 29.92in /  1013.1hPa Calm   2mph /  3.2km/h 91% 0.00in /  0mm 0 W/m2
04:30 47.3 °F /  8.5 °C 44.8 °F /  7.1 °C 29.92in /  1013.1hPa Calm   2mph /  3.2km/h 91% 0.00in /  0mm 0 W/m2
04:40 47.1 °F /  8.4 °C 44.6 °F /  7 °C 29.92in /  1013.1hPa NW 1mph /  1.6km/h 2mph /  3.2km/h 91% 0.00in /  0mm 0 W/m2
04:50 47.1 °F /  8.4 °C 45.2 °F /  7.3 °C 29.92in /  1013.1hPa Calm   3mph /  4.8km/h 93% 0.00in /  0mm 0 W/m2
05:00 46.9 °F /  8.3 °C 45 °F /  7.2 °C 29.92in /  1013.1hPa Calm   2mph /  3.2km/h 93% 0.00in /  0mm 0 W/m2
05:10 46.9 °F /  8.3 °C 45 °F /  7.2 °C 29.92in /  1013.1hPa Calm   2mph /  3.2km/h 93% 0.00in /  0mm 4 W/m2
05:20 46.6 °F /  8.1 °C 44.7 °F /  7.1 °C 29.92in /  1013.1hPa WNW 1mph /  1.6km/h 3mph /  4.8km/h 93% 0.00in /  0mm 9 W/m2
05:30 46.6 °F /  8.1 °C 44.9 °F /  7.2 °C 29.92in /  1013.1hPa West 2mph /  3.2km/h 2mph /  3.2km/h 94% 0.00in /  0mm 17 W/m2
05:40 46.8 °F /  8.2 °C 45.1 °F /  7.3 °C 29.92in /  1013.1hPa West 2mph /  3.2km/h 4mph /  6.4km/h 94% 0.00in /  0mm 24 W/m2
05:50 46.9 °F /  8.3 °C 45.6 °F /  7.6 °C 29.92in /  1013.1hPa Calm   3mph /  4.8km/h 95% 0.00in /  0mm 36 W/m2
06:00 47.1 °F /  8.4 °C 45.8 °F /  7.7 °C 29.92in /  1013.1hPa NW 1mph /  1.6km/h 2mph /  3.2km/h 95% 0.00in /  0mm 50 W/m2
06:10 47.3 °F /  8.5 °C 45.9 °F /  7.7 °C 29.92in /  1013.1hPa WNW 1mph /  1.6km/h 3mph /  4.8km/h 95% 0.00in /  0mm 68 W/m2
06:20 47.7 °F /  8.7 °C 46.3 °F /  7.9 °C 29.92in /  1013.1hPa West 2mph /  3.2km/h 4mph /  6.4km/h 95% 0.00in /  0mm 82 W/m2
06:30 48 °F /  8.9 °C 46.7 °F /  8.2 °C 29.92in /  1013.1hPa West 1mph /  1.6km/h 4mph /  6.4km/h 95% 0.00in /  0mm 82 W/m2
06:40 48.4 °F /  9.1 °C 47 °F /  8.3 °C 29.92in /  1013.1hPa West 1mph /  1.6km/h 3mph /  4.8km/h 95% 0.00in /  0mm 101 W/m2
06:50 48.7 °F /  9.3 °C 47.4 °F /  8.6 °C 29.92in /  1013.1hPa WNW 1mph /  1.6km/h 3mph /  4.8km/h 95% 0.00in /  0mm 119 W/m2
07:00 49.1 °F /  9.5 °C 47.7 °F /  8.7 °C 29.92in /  1013.1hPa WSW 1mph /  1.6km/h 2mph /  3.2km/h 95% 0.00in /  0mm 179 W/m2
07:10 49.5 °F /  9.7 °C 48.1 °F /  8.9 °C 29.91in /  1012.8hPa West 1mph /  1.6km/h 3mph /  4.8km/h 95% 0.00in /  0mm 84 W/m2
07:20 49.8 °F /  9.9 °C 48.4 °F /  9.1 °C 29.91in /  1012.8hPa West 1mph /  1.6km/h 2mph /  3.2km/h 95% 0.00in /  0mm 313 W/m2
07:30 50.4 °F /  10.2 °C 49 °F /  9.4 °C 29.91in /  1012.8hPa Calm   2mph /  3.2km/h 95% 0.00in /  0mm 343 W/m2
07:40 50.9 °F /  10.5 °C 49.5 °F /  9.7 °C 29.90in /  1012.4hPa West 1mph /  1.6km/h 4mph /  6.4km/h 95% 0.00in /  0mm 377 W/m2
07:50 51.5 °F /  10.8 °C 49.5 °F /  9.7 °C 29.90in /  1012.4hPa Calm   2mph /  3.2km/h 93% 0.00in /  0mm 409 W/m2
08:00 52.4 °F /  11.3 °C 50.4 °F /  10.2 °C 29.90in /  1012.4hPa Calm   3mph /  4.8km/h 93% 0.00in /  0mm 444 W/m2
08:10 53.4 °F /  11.9 °C 50.6 °F /  10.3 °C 29.89in /  1012.1hPa North 1mph /  1.6km/h 3mph /  4.8km/h 90% 0.00in /  0mm 481 W/m2
08:20 54.5 °F /  12.5 °C 51.7 °F /  10.9 °C 29.89in /  1012.1hPa SW 1mph /  1.6km/h 3mph /  4.8km/h 90% 0.00in /  0mm 516 W/m2
08:30 55.6 °F /  13.1 °C 52.4 °F /  11.3 °C 29.89in /  1012.1hPa NNW 3mph /  4.8km/h 5mph /  8km/h 89% 0.00in /  0mm 555 W/m2
08:40 57.2 °F /  14 °C 52.8 °F /  11.6 °C 29.89in /  1012.1hPa SE 1mph /  1.6km/h 3mph /  4.8km/h 85% 0.00in /  0mm 587 W/m2
08:50 58.9 °F /  14.9 °C 54.1 °F /  12.3 °C 29.89in /  1012.1hPa WNW 1mph /  1.6km/h 2mph /  3.2km/h 84% 0.00in /  0mm 615 W/m2
09:00 61.6 °F /  16.4 °C 55.3 °F /  12.9 °C 29.89in /  1012.1hPa Calm   7mph /  11.3km/h 80% 0.00in /  0mm 613 W/m2
09:10 63.9 °F /  17.7 °C 55.4 °F /  13 °C 29.89in /  1012.1hPa NE 1mph /  1.6km/h 6mph /  9.7km/h 74% 0.00in /  0mm 669 W/m2
09:20 65.9 °F /  18.8 °C 56.6 °F /  13.7 °C 29.89in /  1012.1hPa NNE 2mph /  3.2km/h 8mph /  12.9km/h 72% 0.00in /  0mm 695 W/m2
09:30 67.3 °F /  19.6 °C 56 °F /  13.3 °C 29.89in /  1012.1hPa NE 1mph /  1.6km/h 8mph /  12.9km/h 67% 0.00in /  0mm 612 W/m2
09:40 68.4 °F /  20.2 °C 56.1 °F /  13.4 °C 29.88in /  1011.7hPa East 1mph /  1.6km/h 6mph /  9.7km/h 65% 0.00in /  0mm 607 W/m2
09:50 69.1 °F /  20.6 °C 54.6 °F /  12.6 °C 29.88in /  1011.7hPa East 1mph /  1.6km/h 6mph /  9.7km/h 60% 0.00in /  0mm 409 W/m2
10:00 69.1 °F /  20.6 °C 55.5 °F /  13.1 °C 29.88in /  1011.7hPa North 1mph /  1.6km/h 6mph /  9.7km/h 62% 0.00in /  0mm 525 W/m2
10:10 69.6 °F /  20.9 °C 54.7 °F /  12.6 °C 29.88in /  1011.7hPa ENE 1mph /  1.6km/h 6mph /  9.7km/h 59% 0.00in /  0mm 459 W/m2
10:20 69.8 °F /  21 °C 53.9 °F /  12.2 °C 29.88in /  1011.7hPa ESE 2mph /  3.2km/h 6mph /  9.7km/h 57% 0.00in /  0mm 642 W/m2
10:30 70.3 °F /  21.3 °C 54.4 °F /  12.4 °C 29.88in /  1011.7hPa East 3mph /  4.8km/h 9mph /  14.5km/h 57% 0.00in /  0mm 661 W/m2
10:40 70.7 °F /  21.5 °C 53.7 °F /  12.1 °C 29.88in /  1011.7hPa East 2mph /  3.2km/h 9mph /  14.5km/h 55% 0.00in /  0mm 403 W/m2
10:50 70.5 °F /  21.4 °C 53.6 °F /  12 °C 29.88in /  1011.7hPa NNE 5mph /  8km/h 9mph /  14.5km/h 55% 0.00in /  0mm 366 W/m2
11:00 70.3 °F /  21.3 °C 54.4 °F /  12.4 °C 29.88in /  1011.7hPa North 1mph /  1.6km/h 9mph /  14.5km/h 57% 0.00in /  0mm 447 W/m2
11:10 70.3 °F /  21.3 °C 54.4 °F /  12.4 °C 29.88in /  1011.7hPa West 2mph /  3.2km/h 6mph /  9.7km/h 57% 0.00in /  0mm 502 W/m2
11:20 70.9 °F /  21.6 °C 55.4 °F /  13 °C 29.88in /  1011.7hPa West 3mph /  4.8km/h 7mph /  11.3km/h 58% 0.00in /  0mm 913 W/m2
11:30 71.6 °F /  22 °C 53.6 °F /  12 °C 29.88in /  1011.7hPa SW 1mph /  1.6km/h 6mph /  9.7km/h 53% 0.00in /  0mm 420 W/m2
11:40 71.4 °F /  21.9 °C 53.4 °F /  11.9 °C 29.88in /  1011.7hPa WNW 2mph /  3.2km/h 5mph /  8km/h 53% 0.00in /  0mm 748 W/m2
11:50 71.6 °F /  22 °C 53.6 °F /  12 °C 29.88in /  1011.7hPa SW 2mph /  3.2km/h 6mph /  9.7km/h 53% 0.00in /  0mm 316 W/m2
12:00 71.1 °F /  21.7 °C 53.1 °F /  11.7 °C 29.87in /  1011.4hPa West 3mph /  4.8km/h 7mph /  11.3km/h 53% 0.00in /  0mm 353 W/m2
12:10 71.1 °F /  21.7 °C 54.1 °F /  12.3 °C 29.87in /  1011.4hPa WSW 3mph /  4.8km/h 6mph /  9.7km/h 55% 0.00in /  0mm 761 W/m2
12:20 71.5 °F /  21.9 °C 53.9 °F /  12.2 °C 29.87in /  1011.4hPa NW 2mph /  3.2km/h 6mph /  9.7km/h 54% 0.00in /  0mm 453 W/m2
12:30 71.4 °F /  21.9 °C 53.4 °F /  11.9 °C 29.87in /  1011.4hPa WNW 5mph /  8km/h 8mph /  12.9km/h 53% 0.00in /  0mm 508 W/m2
12:40 71.8 °F /  22.1 °C 53.7 °F /  12.1 °C 29.86in /  1011.1hPa WNW 5mph /  8km/h 8mph /  12.9km/h 53% 0.00in /  0mm 726 W/m2
12:50 72.5 °F /  22.5 °C 54.4 °F /  12.4 °C 29.86in /  1011.1hPa NNW 3mph /  4.8km/h 7mph /  11.3km/h 53% 0.00in /  0mm 856 W/m2
13:00 73.3 °F /  22.9 °C 55.1 °F /  12.8 °C 29.86in /  1011.1hPa WNW 2mph /  3.2km/h 6mph /  9.7km/h 53% 0.00in /  0mm 583 W/m2
13:10 73.9 °F /  23.3 °C 53.6 °F /  12 °C 29.85in /  1010.7hPa NW 2mph /  3.2km/h 7mph /  11.3km/h 49% 0.00in /  0mm 920 W/m2
13:20 74.5 °F /  23.6 °C 54.6 °F /  12.6 °C 29.85in /  1010.7hPa North 3mph /  4.8km/h 7mph /  11.3km/h 50% 0.00in /  0mm 804 W/m2
13:30 74.3 °F /  23.5 °C 56.1 °F /  13.4 °C 29.85in /  1010.7hPa NNE 5mph /  8km/h 10mph /  16.1km/h 53% 0.00in /  0mm 323 W/m2
13:40 73.7 °F /  23.2 °C 56.5 °F /  13.6 °C 29.85in /  1010.7hPa North 1mph /  1.6km/h 10mph /  16.1km/h 55% 0.00in /  0mm 348 W/m2
13:50 73.2 °F /  22.9 °C 55.5 °F /  13.1 °C 29.85in /  1010.7hPa North 2mph /  3.2km/h 9mph /  14.5km/h 54% 0.00in /  0mm 249 W/m2
14:00 72 °F /  22.2 °C 54.9 °F /  12.7 °C 29.85in /  1010.7hPa NE 2mph /  3.2km/h 13mph /  20.9km/h 55% 0.00in /  0mm 201 W/m2
14:10 71.4 °F /  21.9 °C 55.9 °F /  13.3 °C 29.85in /  1010.7hPa NNE 2mph /  3.2km/h 10mph /  16.1km/h 58% 0.00in /  0mm 220 W/m2
14:20 71.2 °F /  21.8 °C 55.7 °F /  13.2 °C 29.85in /  1010.7hPa NNE 2mph /  3.2km/h 9mph /  14.5km/h 58% 0.00in /  0mm 249 W/m2
14:30 71.1 °F /  21.7 °C 55.5 °F /  13.1 °C 29.85in /  1010.7hPa NNE 3mph /  4.8km/h 6mph /  9.7km/h 58% 0.00in /  0mm 213 W/m2
14:40 70.9 °F /  21.6 °C 56.3 °F /  13.5 °C 29.85in /  1010.7hPa North 5mph /  8km/h 6mph /  9.7km/h 60% 0.00in /  0mm 128 W/m2
14:50 69.9 °F /  21.1 °C 54.9 °F /  12.7 °C 29.85in /  1010.7hPa East 12mph /  19.3km/h 19mph /  30.6km/h 59% 0.00in /  0mm 55 W/m2
15:00 66 °F /  18.9 °C 55.6 °F /  13.1 °C 29.85in /  1010.7hPa ESE 12mph /  19.3km/h 24mph /  38.6km/h 69% 0.01in /  0.25mm 44 W/m2
15:10 63.7 °F /  17.6 °C 55.2 °F /  12.9 °C 29.86in /  1011.1hPa SE 7mph /  11.3km/h 15mph /  24.1km/h 74% 0.00in /  0mm 56 W/m2
15:20 62.4 °F /  16.9 °C 55.1 °F /  12.8 °C 29.85in /  1010.7hPa ESE 9mph /  14.5km/h 20mph /  32.2km/h 77% 0.00in /  0mm 73 W/m2
15:30 61.8 °F /  16.6 °C 55.2 °F /  12.9 °C 29.85in /  1010.7hPa East 8mph /  12.9km/h 17mph /  27.4km/h 79% 0.02in /  0.51mm 98 W/m2
15:40 61.9 °F /  16.6 °C 56.7 °F /  13.7 °C 29.86in /  1011.1hPa NNW 1mph /  1.6km/h 6mph /  9.7km/h 83% 0.00in /  0mm 147 W/m2
15:50 61.5 °F /  16.4 °C 56.6 °F /  13.7 °C 29.86in /  1011.1hPa NW 2mph /  3.2km/h 5mph /  8km/h 84% 0.00in /  0mm 183 W/m2
16:00 61.5 °F /  16.4 °C 56.3 °F /  13.5 °C 29.86in /  1011.1hPa NNE 3mph /  4.8km/h 8mph /  12.9km/h 83% 0.00in /  0mm 228 W/m2
16:10 61.7 °F /  16.5 °C 56.5 °F /  13.6 °C 29.86in /  1011.1hPa NNW 5mph /  8km/h 8mph /  12.9km/h 83% 0.00in /  0mm 220 W/m2
16:20 61.9 °F /  16.6 °C 57 °F /  13.9 °C 29.86in /  1011.1hPa North 3mph /  4.8km/h 8mph /  12.9km/h 84% 0.00in /  0mm 193 W/m2
16:30 61.6 °F /  16.4 °C 57.1 °F /  13.9 °C 29.86in /  1011.1hPa North 3mph /  4.8km/h 7mph /  11.3km/h 85% 0.00in /  0mm 194 W/m2
16:40 61.5 °F /  16.4 °C 57.3 °F /  14.1 °C 29.86in /  1011.1hPa North 1mph /  1.6km/h 6mph /  9.7km/h 86% 0.00in /  0mm 213 W/m2
16:50 61.6 °F /  16.4 °C 57.4 °F /  14.1 °C 29.86in /  1011.1hPa North 1mph /  1.6km/h 3mph /  4.8km/h 86% 0.00in /  0mm 187 W/m2
17:00 61.5 °F /  16.4 °C 57 °F /  13.9 °C 29.85in /  1010.7hPa Calm   2mph /  3.2km/h 85% 0.00in /  0mm 190 W/m2
17:10 61.5 °F /  16.4 °C 57 °F /  13.9 °C 29.85in /  1010.7hPa NNE 2mph /  3.2km/h 5mph /  8km/h 85% 0.00in /  0mm 205 W/m2
17:20 61.9 °F /  16.6 °C 57.6 °F /  14.2 °C 29.85in /  1010.7hPa NNE 1mph /  1.6km/h 5mph /  8km/h 86% 0.00in /  0mm 145 W/m2
17:30 61.8 °F /  16.6 °C 57.6 °F /  14.2 °C 29.85in /  1010.7hPa NW 1mph /  1.6km/h 4mph /  6.4km/h 86% 0.00in /  0mm 189 W/m2
17:40 61.7 °F /  16.5 °C 57.1 °F /  13.9 °C 29.85in /  1010.7hPa SSE 1mph /  1.6km/h 4mph /  6.4km/h 85% 0.00in /  0mm 117 W/m2
17:50 61.9 °F /  16.6 °C 57.6 °F /  14.2 °C 29.84in /  1010.4hPa Calm   2mph /  3.2km/h 86% 0.00in /  0mm 157 W/m2
18:00 62.2 °F /  16.8 °C 58 °F /  14.4 °C 29.84in /  1010.4hPa WSW 1mph /  1.6km/h 2mph /  3.2km/h 86% 0.00in /  0mm 246 W/m2
18:10 63 °F /  17.2 °C 58.4 °F /  14.7 °C 29.84in /  1010.4hPa West 1mph /  1.6km/h 4mph /  6.4km/h 85% 0.00in /  0mm 140 W/m2
Knjazevac, Serbia
Compliments of Weather Underground - 2 mb